Share

Greentop, MO (63546)

KMOLANCA2 Elev 915 ft | 40.52 °N, 92.52 °W | Change Station

Current weather conditions updated 9 minutes ago

Light Rain
Light Rain Mist
61.6 °F
Feels Like 61.6 °F
N
4.0
Wind Variable Wind from WSW
Sunrise 6:23 AM
Sunset 7:55 PM
Moon Waning Gibbous

Today is forecast to be Much Cooler than yesterday. Thunderstorms.

Pressure 30.00 in
Visibility 4.0 miles
Clouds Few 800 ft
Mostly Cloudy 2500 ft
Overcast 8000 ft
Dew Point 60 °F
Humidity 93%
Rainfall 0.05 in
Snow Depth Not available.
UV 2 out of 16
Pollen 7.70 out of 12
Air Quality Not available.
Flu Activity Sporadic
SPECI KIRK 211613Z AUTO 22005KT 4SM -RA BR FEW008 BKN025 OVC080 17/17 A3000 RMK AO2 P0001 T01670167

More Conditions Fewer Conditions

Pressure 30.00 in
Visibility 4.0 miles
Clouds Few 800 ft
Mostly Cloudy 2500 ft
Overcast 8000 ft
Dew Point 60 °F
Humidity 93%
Rainfall 0.05 in
Snow Depth Not available.
UV 2 out of 16
Pollen 7.70 out of 12
Air Quality Not available.
Flu Activity Sporadic
SPECI KIRK 211613Z AUTO 22005KT 4SM -RA BR FEW008 BKN025 OVC080 17/17 A3000 RMK AO2 P0001 T01670167

More Conditions Fewer Conditions

10-Day Weather Forecast

Almanac

Astronomy

Apr. 21, 2014 Rise Set
Actual Time 6:23 AM CDT 7:55 PM CDT
Civil Twilight 5:54 AM CDT 8:24 PM CDT
Nautical Twilight 5:19 AM CDT 8:58 PM CDT
Astronomical Twilight 4:43 AM CDT 9:35 PM CDT
Moon 1:25 AM CDT 11:50 AM CDT
Length of Visible Light 14h 29m
Length of Day
13h 32m
Tomorrow will be 2m 28s longer.
Waning Gibbous, 57% of the Moon is Illuminated
Today
Waning Gibbous
Apr 22
Last Quarter
Apr 29
New
May 6
First Quarter
May 14
Full

Today's Extremes

State Highs State Lows

Community

  • Glass on White Lake
    Glass on White Lake
  • Bright Eyes
    Bright Eyes
  • Snowy Robin
    Snowy Robin
  • Spring Crocus
    Spring Crocus
  • Sun Pillar and Geese
    Sun Pillar and Geese

WunderPhotos

Upload Photos

1,703,682 photos uploaded!

WunderBlogs® & News

Nearby

Snow Depth

Station Depth Elevation
No new snow has been reported.

Coastal Water Temperatures

Place Temperature
No Stations Reporting

Earthquake Activity

City Distance Mag. Time & Date
No recent earthquake activity has been reported nearby.
Minimum magnitude displayed is 2.5.

Nearby Weather Stations

Station Location Temp. Dew Point Humidity Wind Precip. Elev Updated Type
Lancaster, MO 61.6 °F 60 °F 93% WSW  at  4.0 mph - / hr 915 ft 11:40 AM CDT Normal
La Plata, La Plata, MO 64.2 °F 62 °F 91% North  at  0.0 mph 0.00 in / hr 928 ft 11:49 AM CDT Rapid Fire

Show More Stations Show Fewer Stations

What do you think?

We're not finished. Please let us know what you like, what you don't like, and what you are still missing.